sensor_id;sensor_type;location;lat;lon;timestamp;temperature;humidity
20658;DHT22;10488;50.846;4.078;2022-08-02T00:02:24;18.60;99.90
20658;DHT22;10488;50.846;4.078;2022-08-02T00:04:50;18.70;99.90
20658;DHT22;10488;50.846;4.078;2022-08-02T00:07:16;18.60;99.90
20658;DHT22;10488;50.846;4.078;2022-08-02T00:09:42;18.70;99.90
20658;DHT22;10488;50.846;4.078;2022-08-02T00:12:08;18.60;99.90
20658;DHT22;10488;50.846;4.078;2022-08-02T00:14:34;18.30;99.90
20658;DHT22;10488;50.846;4.078;2022-08-02T00:17:00;18.40;99.90
20658;DHT22;10488;50.846;4.078;2022-08-02T00:19:26;18.40;99.90
20658;DHT22;10488;50.846;4.078;2022-08-02T00:21:51;18.40;99.90
20658;DHT22;10488;50.846;4.078;2022-08-02T00:24:17;18.30;99.90
20658;DHT22;10488;50.846;4.078;2022-08-02T00:26:42;18.30;99.90
20658;DHT22;10488;50.846;4.078;2022-08-02T00:29:08;18.30;99.90
20658;DHT22;10488;50.846;4.078;2022-08-02T00:31:34;18.40;99.90
20658;DHT22;10488;50.846;4.078;2022-08-02T00:34:00;18.50;99.90
20658;DHT22;10488;50.846;4.078;2022-08-02T00:36:25;18.30;99.90
20658;DHT22;10488;50.846;4.078;2022-08-02T00:38:51;18.00;99.90
20658;DHT22;10488;50.846;4.078;2022-08-02T00:41:19;17.90;99.90
20658;DHT22;10488;50.846;4.078;2022-08-02T00:43:46;18.10;99.90
20658;DHT22;10488;50.846;4.078;2022-08-02T00:46:12;18.00;99.90
20658;DHT22;10488;50.846;4.078;2022-08-02T00:48:38;18.00;99.90
20658;DHT22;10488;50.846;4.078;2022-08-02T00:51:04;17.90;99.90
20658;DHT22;10488;50.846;4.078;2022-08-02T00:53:29;18.00;99.90
20658;DHT22;10488;50.846;4.078;2022-08-02T00:55:55;18.20;99.90
20658;DHT22;10488;50.846;4.078;2022-08-02T00:58:20;18.00;99.90
20658;DHT22;10488;50.846;4.078;2022-08-02T01:00:46;17.90;99.90
20658;DHT22;10488;50.846;4.078;2022-08-02T01:03:12;18.00;99.90
20658;DHT22;10488;50.846;4.078;2022-08-02T01:05:38;17.90;99.90
20658;DHT22;10488;50.846;4.078;2022-08-02T01:08:04;17.60;99.90
20658;DHT22;10488;50.846;4.078;2022-08-02T01:10:29;17.80;99.90
20658;DHT22;10488;50.846;4.078;2022-08-02T01:12:55;18.00;99.90
20658;DHT22;10488;50.846;4.078;2022-08-02T01:15:21;18.10;99.90
20658;DHT22;10488;50.846;4.078;2022-08-02T01:18:00;18.10;99.90
20658;DHT22;10488;50.846;4.078;2022-08-02T01:34:28;18.10;99.90
20658;DHT22;10488;50.846;4.078;2022-08-02T01:36:58;18.00;99.90
20658;DHT22;10488;50.846;4.078;2022-08-02T01:39:28;17.70;99.90
20658;DHT22;10488;50.846;4.078;2022-08-02T01:41:56;17.40;99.90
20658;DHT22;10488;50.846;4.078;2022-08-02T01:44:24;17.50;99.90
20658;DHT22;10488;50.846;4.078;2022-08-02T01:46:52;17.80;99.90
20658;DHT22;10488;50.846;4.078;2022-08-02T01:49:21;18.00;99.90
20658;DHT22;10488;50.846;4.078;2022-08-02T01:51:49;18.00;99.90
20658;DHT22;10488;50.846;4.078;2022-08-02T01:54:36;18.20;99.90
20658;DHT22;10488;50.846;4.078;2022-08-02T01:57:05;18.10;99.90
20658;DHT22;10488;50.846;4.078;2022-08-02T01:59:31;18.10;99.90
20658;DHT22;10488;50.846;4.078;2022-08-02T02:01:59;18.10;99.90
20658;DHT22;10488;50.846;4.078;2022-08-02T02:04:28;17.90;99.90
20658;DHT22;10488;50.846;4.078;2022-08-02T02:06:56;18.10;99.90
20658;DHT22;10488;50.846;4.078;2022-08-02T02:09:25;18.10;99.90
20658;DHT22;10488;50.846;4.078;2022-08-02T02:11:52;18.10;99.90
20658;DHT22;10488;50.846;4.078;2022-08-02T02:14:20;18.10;99.90
20658;DHT22;10488;50.846;4.078;2022-08-02T02:16:47;18.10;99.90
20658;DHT22;10488;50.846;4.078;2022-08-02T02:19:16;18.20;99.90
20658;DHT22;10488;50.846;4.078;2022-08-02T02:21:43;18.20;99.90
20658;DHT22;10488;50.846;4.078;2022-08-02T02:24:09;18.10;99.90
20658;DHT22;10488;50.846;4.078;2022-08-02T02:26:36;18.10;99.90
20658;DHT22;10488;50.846;4.078;2022-08-02T02:29:03;18.10;99.90
20658;DHT22;10488;50.846;4.078;2022-08-02T02:31:40;18.00;99.90
20658;DHT22;10488;50.846;4.078;2022-08-02T02:34:10;18.10;99.90
20658;DHT22;10488;50.846;4.078;2022-08-02T02:36:38;18.10;99.90
20658;DHT22;10488;50.846;4.078;2022-08-02T02:39:06;18.00;99.90
20658;DHT22;10488;50.846;4.078;2022-08-02T02:41:36;18.00;99.90
20658;DHT22;10488;50.846;4.078;2022-08-02T02:44:04;18.00;99.90
20658;DHT22;10488;50.846;4.078;2022-08-02T02:46:31;18.10;99.90
20658;DHT22;10488;50.846;4.078;2022-08-02T02:48:57;18.10;99.90
20658;DHT22;10488;50.846;4.078;2022-08-02T02:51:24;17.90;99.90
20658;DHT22;10488;50.846;4.078;2022-08-02T02:53:51;18.00;99.90
20658;DHT22;10488;50.846;4.078;2022-08-02T02:56:17;18.10;99.90
20658;DHT22;10488;50.846;4.078;2022-08-02T02:58:46;18.10;99.90
20658;DHT22;10488;50.846;4.078;2022-08-02T03:01:12;18.10;99.90
20658;DHT22;10488;50.846;4.078;2022-08-02T03:03:59;18.20;99.90
20658;DHT22;10488;50.846;4.078;2022-08-02T03:06:25;18.20;99.90
20658;DHT22;10488;50.846;4.078;2022-08-02T03:08:50;18.20;99.90
20658;DHT22;10488;50.846;4.078;2022-08-02T03:11:16;18.10;99.90
20658;DHT22;10488;50.846;4.078;2022-08-02T03:13:42;18.10;99.90
20658;DHT22;10488;50.846;4.078;2022-08-02T03:16:10;18.10;99.90
20658;DHT22;10488;50.846;4.078;2022-08-02T03:18:41;17.90;99.90
20658;DHT22;10488;50.846;4.078;2022-08-02T03:21:11;17.90;99.90
20658;DHT22;10488;50.846;4.078;2022-08-02T03:23:38;17.80;99.90
20658;DHT22;10488;50.846;4.078;2022-08-02T03:26:05;17.80;99.90
20658;DHT22;10488;50.846;4.078;2022-08-02T03:28:30;17.90;99.90
20658;DHT22;10488;50.846;4.078;2022-08-02T03:30:56;17.90;99.90
20658;DHT22;10488;50.846;4.078;2022-08-02T03:33:23;18.00;99.90
20658;DHT22;10488;50.846;4.078;2022-08-02T03:35:51;17.90;99.90
20658;DHT22;10488;50.846;4.078;2022-08-02T03:38:19;18.00;99.90
20658;DHT22;10488;50.846;4.078;2022-08-02T03:40:46;18.20;99.90
20658;DHT22;10488;50.846;4.078;2022-08-02T03:43:13;18.20;99.90
20658;DHT22;10488;50.846;4.078;2022-08-02T03:45:43;18.10;99.90
20658;DHT22;10488;50.846;4.078;2022-08-02T03:48:10;18.00;99.90
20658;DHT22;10488;50.846;4.078;2022-08-02T03:50:36;17.90;99.90
20658;DHT22;10488;50.846;4.078;2022-08-02T03:53:04;17.90;99.90
20658;DHT22;10488;50.846;4.078;2022-08-02T03:55:30;18.00;99.90
20658;DHT22;10488;50.846;4.078;2022-08-02T03:57:57;17.90;99.90
20658;DHT22;10488;50.846;4.078;2022-08-02T04:00:23;17.80;99.90
20658;DHT22;10488;50.846;4.078;2022-08-02T04:02:49;17.80;99.90
20658;DHT22;10488;50.846;4.078;2022-08-02T04:05:15;17.70;99.90
20658;DHT22;10488;50.846;4.078;2022-08-02T04:07:41;17.70;99.90
20658;DHT22;10488;50.846;4.078;2022-08-02T04:10:09;17.90;99.90
20658;DHT22;10488;50.846;4.078;2022-08-02T04:12:35;17.80;99.90
20658;DHT22;10488;50.846;4.078;2022-08-02T04:15:04;17.70;99.90
20658;DHT22;10488;50.846;4.078;2022-08-02T04:17:32;17.60;99.90
20658;DHT22;10488;50.846;4.078;2022-08-02T04:20:06;17.60;99.90
20658;DHT22;10488;50.846;4.078;2022-08-02T04:25:13;17.60;99.90
20658;DHT22;10488;50.846;4.078;2022-08-02T04:27:39;17.60;99.90
20658;DHT22;10488;50.846;4.078;2022-08-02T04:30:07;17.30;99.90
20658;DHT22;10488;50.846;4.078;2022-08-02T04:32:34;17.40;99.90
20658;DHT22;10488;50.846;4.078;2022-08-02T04:35:00;17.50;99.90
20658;DHT22;10488;50.846;4.078;2022-08-02T04:37:26;17.40;99.90
20658;DHT22;10488;50.846;4.078;2022-08-02T04:39:52;17.50;99.90
20658;DHT22;10488;50.846;4.078;2022-08-02T04:42:21;17.50;99.90
20658;DHT22;10488;50.846;4.078;2022-08-02T04:44:47;17.70;99.90
20658;DHT22;10488;50.846;4.078;2022-08-02T04:47:14;17.60;99.90
20658;DHT22;10488;50.846;4.078;2022-08-02T04:49:39;17.70;99.90
20658;DHT22;10488;50.846;4.078;2022-08-02T04:52:05;17.70;99.90
20658;DHT22;10488;50.846;4.078;2022-08-02T04:54:31;17.50;99.90
20658;DHT22;10488;50.846;4.078;2022-08-02T04:56:56;17.50;99.90
20658;DHT22;10488;50.846;4.078;2022-08-02T04:59:22;17.60;99.90
20658;DHT22;10488;50.846;4.078;2022-08-02T05:01:48;17.70;99.90
20658;DHT22;10488;50.846;4.078;2022-08-02T05:04:14;17.70;99.90
20658;DHT22;10488;50.846;4.078;2022-08-02T05:06:39;17.70;99.90
20658;DHT22;10488;50.846;4.078;2022-08-02T05:09:05;17.40;99.90
20658;DHT22;10488;50.846;4.078;2022-08-02T05:11:31;17.50;99.90
20658;DHT22;10488;50.846;4.078;2022-08-02T05:13:56;17.50;99.90
20658;DHT22;10488;50.846;4.078;2022-08-02T05:16:22;17.60;99.90
20658;DHT22;10488;50.846;4.078;2022-08-02T05:18:50;17.50;99.90
20658;DHT22;10488;50.846;4.078;2022-08-02T05:21:16;17.50;99.90
20658;DHT22;10488;50.846;4.078;2022-08-02T05:23:41;17.50;99.90
20658;DHT22;10488;50.846;4.078;2022-08-02T05:26:07;17.60;99.90
20658;DHT22;10488;50.846;4.078;2022-08-02T05:28:33;17.50;99.90
20658;DHT22;10488;50.846;4.078;2022-08-02T05:30:59;17.50;99.90
20658;DHT22;10488;50.846;4.078;2022-08-02T05:33:24;17.40;99.90
20658;DHT22;10488;50.846;4.078;2022-08-02T05:35:50;17.50;99.90
20658;DHT22;10488;50.846;4.078;2022-08-02T05:38:16;17.30;99.90
20658;DHT22;10488;50.846;4.078;2022-08-02T05:40:42;17.50;99.90
20658;DHT22;10488;50.846;4.078;2022-08-02T05:43:12;17.40;99.90
20658;DHT22;10488;50.846;4.078;2022-08-02T05:45:38;17.60;99.90
20658;DHT22;10488;50.846;4.078;2022-08-02T05:48:04;17.90;99.90
20658;DHT22;10488;50.846;4.078;2022-08-02T05:50:30;18.70;99.90
20658;DHT22;10488;50.846;4.078;2022-08-02T05:53:03;20.00;99.90
20658;DHT22;10488;50.846;4.078;2022-08-02T05:55:41;20.90;99.90
20658;DHT22;10488;50.846;4.078;2022-08-02T05:58:17;21.80;99.90
20658;DHT22;10488;50.846;4.078;2022-08-02T06:00:47;22.20;99.90
20658;DHT22;10488;50.846;4.078;2022-08-02T06:03:23;23.20;99.90
20658;DHT22;10488;50.846;4.078;2022-08-02T06:05:58;23.20;99.90
20658;DHT22;10488;50.846;4.078;2022-08-02T06:08:32;23.10;99.90
20658;DHT22;10488;50.846;4.078;2022-08-02T06:11:00;23.60;99.90
20658;DHT22;10488;50.846;4.078;2022-08-02T06:13:26;23.20;99.90
20658;DHT22;10488;50.846;4.078;2022-08-02T06:15:52;23.70;99.90
20658;DHT22;10488;50.846;4.078;2022-08-02T06:18:20;23.70;99.90
20658;DHT22;10488;50.846;4.078;2022-08-02T06:20:49;24.30;99.90
20658;DHT22;10488;50.846;4.078;2022-08-02T06:23:15;24.40;99.90
20658;DHT22;10488;50.846;4.078;2022-08-02T06:25:44;24.60;99.90
20658;DHT22;10488;50.846;4.078;2022-08-02T06:28:12;24.10;99.90
20658;DHT22;10488;50.846;4.078;2022-08-02T06:30:38;23.20;99.90
20658;DHT22;10488;50.846;4.078;2022-08-02T06:33:05;23.20;99.90
20658;DHT22;10488;50.846;4.078;2022-08-02T06:38:32;23.60;99.90
20658;DHT22;10488;50.846;4.078;2022-08-02T06:41:04;23.10;99.90
20658;DHT22;10488;50.846;4.078;2022-08-02T06:43:53;22.90;99.90
20658;DHT22;10488;50.846;4.078;2022-08-02T06:46:20;23.70;99.90
20658;DHT22;10488;50.846;4.078;2022-08-02T06:48:46;23.80;99.90
20658;DHT22;10488;50.846;4.078;2022-08-02T06:51:12;23.90;99.90
20658;DHT22;10488;50.846;4.078;2022-08-02T06:53:38;23.40;99.90
20658;DHT22;10488;50.846;4.078;2022-08-02T06:56:04;23.60;99.90
20658;DHT22;10488;50.846;4.078;2022-08-02T06:58:30;23.20;99.90
20658;DHT22;10488;50.846;4.078;2022-08-02T07:00:55;23.90;99.90
20658;DHT22;10488;50.846;4.078;2022-08-02T07:03:21;24.20;99.90
20658;DHT22;10488;50.846;4.078;2022-08-02T07:05:50;24.50;99.90
20658;DHT22;10488;50.846;4.078;2022-08-02T07:08:17;24.60;99.90
20658;DHT22;10488;50.846;4.078;2022-08-02T07:10:43;24.60;99.90
20658;DHT22;10488;50.846;4.078;2022-08-02T07:13:08;24.90;99.90
20658;DHT22;10488;50.846;4.078;2022-08-02T07:15:35;25.20;99.90
20658;DHT22;10488;50.846;4.078;2022-08-02T07:18:02;25.50;99.90
20658;DHT22;10488;50.846;4.078;2022-08-02T07:20:27;25.70;99.90
20658;DHT22;10488;50.846;4.078;2022-08-02T07:22:53;25.90;99.90
20658;DHT22;10488;50.846;4.078;2022-08-02T07:25:19;25.80;99.90
20658;DHT22;10488;50.846;4.078;2022-08-02T07:27:44;25.70;99.90
20658;DHT22;10488;50.846;4.078;2022-08-02T07:30:10;24.70;99.90
20658;DHT22;10488;50.846;4.078;2022-08-02T07:32:36;24.80;99.90
20658;DHT22;10488;50.846;4.078;2022-08-02T07:35:03;24.20;99.90
20658;DHT22;10488;50.846;4.078;2022-08-02T07:37:31;24.10;99.90
20658;DHT22;10488;50.846;4.078;2022-08-02T07:39:57;25.00;99.90
20658;DHT22;10488;50.846;4.078;2022-08-02T07:42:23;25.40;99.90
20658;DHT22;10488;50.846;4.078;2022-08-02T07:44:49;25.80;99.90
20658;DHT22;10488;50.846;4.078;2022-08-02T07:47:15;25.80;99.90
20658;DHT22;10488;50.846;4.078;2022-08-02T07:49:41;25.80;99.90
20658;DHT22;10488;50.846;4.078;2022-08-02T07:52:07;26.10;99.90
20658;DHT22;10488;50.846;4.078;2022-08-02T07:54:32;27.00;99.90
20658;DHT22;10488;50.846;4.078;2022-08-02T07:56:58;26.80;99.90
20658;DHT22;10488;50.846;4.078;2022-08-02T07:59:25;26.50;99.90
20658;DHT22;10488;50.846;4.078;2022-08-02T08:01:51;26.90;99.90
20658;DHT22;10488;50.846;4.078;2022-08-02T08:04:18;26.90;99.90
20658;DHT22;10488;50.846;4.078;2022-08-02T08:06:44;26.50;99.90
20658;DHT22;10488;50.846;4.078;2022-08-02T08:09:13;26.70;99.90
20658;DHT22;10488;50.846;4.078;2022-08-02T08:11:39;26.70;99.90
20658;DHT22;10488;50.846;4.078;2022-08-02T08:14:05;26.00;99.90
20658;DHT22;10488;50.846;4.078;2022-08-02T08:16:31;26.80;99.90
20658;DHT22;10488;50.846;4.078;2022-08-02T08:18:57;27.60;99.90
20658;DHT22;10488;50.846;4.078;2022-08-02T08:21:23;27.70;99.90
20658;DHT22;10488;50.846;4.078;2022-08-02T08:23:48;27.60;99.90
20658;DHT22;10488;50.846;4.078;2022-08-02T08:26:15;27.70;99.90
20658;DHT22;10488;50.846;4.078;2022-08-02T08:28:41;27.30;99.90
20658;DHT22;10488;50.846;4.078;2022-08-02T08:31:07;26.60;99.90
20658;DHT22;10488;50.846;4.078;2022-08-02T08:33:33;26.50;99.90
20658;DHT22;10488;50.846;4.078;2022-08-02T08:35:59;26.70;99.90
20658;DHT22;10488;50.846;4.078;2022-08-02T08:38:24;26.40;99.90
20658;DHT22;10488;50.846;4.078;2022-08-02T08:40:51;27.10;99.90
20658;DHT22;10488;50.846;4.078;2022-08-02T08:43:17;27.00;99.90
20658;DHT22;10488;50.846;4.078;2022-08-02T08:45:46;27.10;99.90
20658;DHT22;10488;50.846;4.078;2022-08-02T08:48:14;27.80;99.90
20658;DHT22;10488;50.846;4.078;2022-08-02T08:50:56;27.60;99.90
20658;DHT22;10488;50.846;4.078;2022-08-02T08:53:26;28.00;99.90
20658;DHT22;10488;50.846;4.078;2022-08-02T08:55:55;28.20;99.90
20658;DHT22;10488;50.846;4.078;2022-08-02T08:58:22;28.40;99.90
20658;DHT22;10488;50.846;4.078;2022-08-02T09:00:48;29.10;99.90
20658;DHT22;10488;50.846;4.078;2022-08-02T09:03:14;29.30;99.90
20658;DHT22;10488;50.846;4.078;2022-08-02T09:05:40;28.70;99.90
20658;DHT22;10488;50.846;4.078;2022-08-02T09:08:07;28.60;99.90
20658;DHT22;10488;50.846;4.078;2022-08-02T09:13:21;27.50;99.90
20658;DHT22;10488;50.846;4.078;2022-08-02T09:18:18;26.80;99.90
20658;DHT22;10488;50.846;4.078;2022-08-02T09:21:10;27.10;99.90
20658;DHT22;10488;50.846;4.078;2022-08-02T09:23:38;27.00;99.90
20658;DHT22;10488;50.846;4.078;2022-08-02T09:26:06;27.40;99.90
20658;DHT22;10488;50.846;4.078;2022-08-02T09:28:35;28.20;99.90
20658;DHT22;10488;50.846;4.078;2022-08-02T09:31:12;28.20;99.90
20658;DHT22;10488;50.846;4.078;2022-08-02T09:33:39;28.10;99.90
20658;DHT22;10488;50.846;4.078;2022-08-02T09:36:07;27.80;99.90
20658;DHT22;10488;50.846;4.078;2022-08-02T09:38:37;27.30;99.90
20658;DHT22;10488;50.846;4.078;2022-08-02T09:41:04;27.30;99.90
20658;DHT22;10488;50.846;4.078;2022-08-02T09:43:41;27.40;99.90
20658;DHT22;10488;50.846;4.078;2022-08-02T09:46:17;27.30;99.90
20658;DHT22;10488;50.846;4.078;2022-08-02T09:49:06;27.60;99.90
20658;DHT22;10488;50.846;4.078;2022-08-02T09:51:36;27.30;99.90
20658;DHT22;10488;50.846;4.078;2022-08-02T09:54:04;28.20;99.90
20658;DHT22;10488;50.846;4.078;2022-08-02T09:56:42;28.80;99.90
20658;DHT22;10488;50.846;4.078;2022-08-02T09:59:09;27.80;99.90
20658;DHT22;10488;50.846;4.078;2022-08-02T10:01:35;28.20;99.90
20658;DHT22;10488;50.846;4.078;2022-08-02T10:04:04;28.20;99.90
20658;DHT22;10488;50.846;4.078;2022-08-02T10:06:31;28.30;99.90
20658;DHT22;10488;50.846;4.078;2022-08-02T10:08:57;28.50;99.90
20658;DHT22;10488;50.846;4.078;2022-08-02T10:11:25;28.80;99.90
20658;DHT22;10488;50.846;4.078;2022-08-02T10:13:54;29.10;99.90
20658;DHT22;10488;50.846;4.078;2022-08-02T10:16:22;29.00;99.90
20658;DHT22;10488;50.846;4.078;2022-08-02T10:18:52;28.20;99.90
20658;DHT22;10488;50.846;4.078;2022-08-02T10:24:29;28.30;99.90
20658;DHT22;10488;50.846;4.078;2022-08-02T10:26:57;28.30;99.90
20658;DHT22;10488;50.846;4.078;2022-08-02T10:29:29;28.30;99.90
20658;DHT22;10488;50.846;4.078;2022-08-02T10:32:01;28.70;99.90
20658;DHT22;10488;50.846;4.078;2022-08-02T10:34:57;28.70;99.90
20658;DHT22;10488;50.846;4.078;2022-08-02T10:37:28;28.60;99.90
20658;DHT22;10488;50.846;4.078;2022-08-02T10:39:56;28.10;99.90
20658;DHT22;10488;50.846;4.078;2022-08-02T10:45:10;27.90;99.90
20658;DHT22;10488;50.846;4.078;2022-08-02T10:47:37;27.70;99.90
20658;DHT22;10488;50.846;4.078;2022-08-02T10:50:03;27.60;99.90
20658;DHT22;10488;50.846;4.078;2022-08-02T10:52:30;27.80;99.90
20658;DHT22;10488;50.846;4.078;2022-08-02T10:55:00;27.90;99.90
20658;DHT22;10488;50.846;4.078;2022-08-02T10:57:28;27.80;99.90
20658;DHT22;10488;50.846;4.078;2022-08-02T11:02:45;28.50;99.90
20658;DHT22;10488;50.846;4.078;2022-08-02T11:05:16;28.70;99.90
20658;DHT22;10488;50.846;4.078;2022-08-02T11:07:43;28.90;99.90
20658;DHT22;10488;50.846;4.078;2022-08-02T11:13:07;29.20;99.90
20658;DHT22;10488;50.846;4.078;2022-08-02T11:18:19;29.00;99.90
20658;DHT22;10488;50.846;4.078;2022-08-02T11:20:45;28.80;99.90
20658;DHT22;10488;50.846;4.078;2022-08-02T11:23:34;29.00;99.90
20658;DHT22;10488;50.846;4.078;2022-08-02T11:26:01;28.90;99.90
20658;DHT22;10488;50.846;4.078;2022-08-02T11:28:29;28.80;99.90
20658;DHT22;10488;50.846;4.078;2022-08-02T11:30:57;28.90;99.90
20658;DHT22;10488;50.846;4.078;2022-08-02T11:33:29;29.10;99.90
20658;DHT22;10488;50.846;4.078;2022-08-02T11:36:00;29.00;99.90
20658;DHT22;10488;50.846;4.078;2022-08-02T11:38:27;28.60;99.90
20658;DHT22;10488;50.846;4.078;2022-08-02T11:40:53;28.60;99.90
20658;DHT22;10488;50.846;4.078;2022-08-02T11:43:24;28.60;99.90
20658;DHT22;10488;50.846;4.078;2022-08-02T11:45:55;28.50;99.90
20658;DHT22;10488;50.846;4.078;2022-08-02T11:48:34;28.70;99.90
20658;DHT22;10488;50.846;4.078;2022-08-02T11:51:13;28.80;99.90
20658;DHT22;10488;50.846;4.078;2022-08-02T11:56:07;29.00;99.90
20658;DHT22;10488;50.846;4.078;2022-08-02T11:58:32;29.10;99.90
20658;DHT22;10488;50.846;4.078;2022-08-02T12:00:58;29.30;99.90
20658;DHT22;10488;50.846;4.078;2022-08-02T12:03:24;28.90;99.90
20658;DHT22;10488;50.846;4.078;2022-08-02T12:05:49;29.10;99.90
20658;DHT22;10488;50.846;4.078;2022-08-02T12:08:15;28.70;99.90
20658;DHT22;10488;50.846;4.078;2022-08-02T12:10:48;28.40;99.90
20658;DHT22;10488;50.846;4.078;2022-08-02T12:13:14;28.60;99.90
20658;DHT22;10488;50.846;4.078;2022-08-02T12:15:44;28.70;99.90
20658;DHT22;10488;50.846;4.078;2022-08-02T12:18:16;28.70;99.90
20658;DHT22;10488;50.846;4.078;2022-08-02T12:21:00;28.50;99.90
20658;DHT22;10488;50.846;4.078;2022-08-02T12:23:27;28.30;99.90
20658;DHT22;10488;50.846;4.078;2022-08-02T12:26:06;28.80;99.90
20658;DHT22;10488;50.846;4.078;2022-08-02T12:28:37;28.90;99.90
20658;DHT22;10488;50.846;4.078;2022-08-02T12:31:07;28.60;99.90
20658;DHT22;10488;50.846;4.078;2022-08-02T12:33:51;28.80;99.90
20658;DHT22;10488;50.846;4.078;2022-08-02T12:36:22;29.20;99.90
20658;DHT22;10488;50.846;4.078;2022-08-02T12:38:56;29.20;99.90
20658;DHT22;10488;50.846;4.078;2022-08-02T12:41:22;29.10;99.90
20658;DHT22;10488;50.846;4.078;2022-08-02T12:43:49;29.30;99.90
20658;DHT22;10488;50.846;4.078;2022-08-02T12:46:20;29.10;99.90
20658;DHT22;10488;50.846;4.078;2022-08-02T12:48:46;28.90;99.90
20658;DHT22;10488;50.846;4.078;2022-08-02T12:51:29;28.70;99.90
20658;DHT22;10488;50.846;4.078;2022-08-02T12:54:16;28.80;99.90
20658;DHT22;10488;50.846;4.078;2022-08-02T12:56:42;28.90;99.90
20658;DHT22;10488;50.846;4.078;2022-08-02T12:59:08;29.20;99.90
20658;DHT22;10488;50.846;4.078;2022-08-02T13:01:34;28.90;99.90
20658;DHT22;10488;50.846;4.078;2022-08-02T13:04:00;28.50;99.90
20658;DHT22;10488;50.846;4.078;2022-08-02T13:06:26;28.60;99.90
20658;DHT22;10488;50.846;4.078;2022-08-02T13:08:52;28.80;99.90
20658;DHT22;10488;50.846;4.078;2022-08-02T13:11:19;29.20;99.90
20658;DHT22;10488;50.846;4.078;2022-08-02T13:13:45;29.00;99.90
20658;DHT22;10488;50.846;4.078;2022-08-02T13:16:11;29.00;99.90
20658;DHT22;10488;50.846;4.078;2022-08-02T13:18:37;29.20;99.90
20658;DHT22;10488;50.846;4.078;2022-08-02T13:21:04;28.90;99.90
20658;DHT22;10488;50.846;4.078;2022-08-02T13:23:31;29.20;99.90
20658;DHT22;10488;50.846;4.078;2022-08-02T13:25:57;29.70;99.90
20658;DHT22;10488;50.846;4.078;2022-08-02T13:28:23;29.60;99.90
20658;DHT22;10488;50.846;4.078;2022-08-02T13:30:49;29.00;99.90
20658;DHT22;10488;50.846;4.078;2022-08-02T13:33:15;29.10;99.90
20658;DHT22;10488;50.846;4.078;2022-08-02T13:35:42;29.00;99.90
20658;DHT22;10488;50.846;4.078;2022-08-02T13:38:08;28.90;99.90
20658;DHT22;10488;50.846;4.078;2022-08-02T13:40:33;29.10;99.90
20658;DHT22;10488;50.846;4.078;2022-08-02T13:42:59;29.10;99.90
20658;DHT22;10488;50.846;4.078;2022-08-02T13:45:25;29.20;99.90
20658;DHT22;10488;50.846;4.078;2022-08-02T13:47:51;29.10;99.90
20658;DHT22;10488;50.846;4.078;2022-08-02T13:50:16;29.40;99.90
20658;DHT22;10488;50.846;4.078;2022-08-02T13:52:42;29.80;99.90
20658;DHT22;10488;50.846;4.078;2022-08-02T13:55:08;30.00;99.90
20658;DHT22;10488;50.846;4.078;2022-08-02T13:57:34;29.80;99.90
20658;DHT22;10488;50.846;4.078;2022-08-02T13:59:59;29.90;99.90
20658;DHT22;10488;50.846;4.078;2022-08-02T14:02:26;29.90;99.90
20658;DHT22;10488;50.846;4.078;2022-08-02T14:04:52;30.00;99.90
20658;DHT22;10488;50.846;4.078;2022-08-02T14:07:18;30.20;99.90
20658;DHT22;10488;50.846;4.078;2022-08-02T14:09:44;30.00;99.90
20658;DHT22;10488;50.846;4.078;2022-08-02T14:12:10;30.10;99.90
20658;DHT22;10488;50.846;4.078;2022-08-02T14:14:37;30.10;99.90
20658;DHT22;10488;50.846;4.078;2022-08-02T14:17:03;30.20;99.90
20658;DHT22;10488;50.846;4.078;2022-08-02T14:19:29;30.20;99.90
20658;DHT22;10488;50.846;4.078;2022-08-02T14:21:54;29.70;99.90
20658;DHT22;10488;50.846;4.078;2022-08-02T14:24:21;30.00;99.90
20658;DHT22;10488;50.846;4.078;2022-08-02T14:26:47;30.00;99.90
20658;DHT22;10488;50.846;4.078;2022-08-02T14:29:14;30.10;99.90
20658;DHT22;10488;50.846;4.078;2022-08-02T14:31:40;30.00;99.90
20658;DHT22;10488;50.846;4.078;2022-08-02T14:34:05;30.00;99.90
20658;DHT22;10488;50.846;4.078;2022-08-02T14:36:31;30.00;99.90
20658;DHT22;10488;50.846;4.078;2022-08-02T14:38:59;30.00;99.90
20658;DHT22;10488;50.846;4.078;2022-08-02T14:41:26;29.70;99.90
20658;DHT22;10488;50.846;4.078;2022-08-02T14:43:51;30.00;99.90
20658;DHT22;10488;50.846;4.078;2022-08-02T14:46:35;30.00;99.90
20658;DHT22;10488;50.846;4.078;2022-08-02T14:49:01;30.10;99.90
20658;DHT22;10488;50.846;4.078;2022-08-02T14:51:29;30.20;99.90
20658;DHT22;10488;50.846;4.078;2022-08-02T14:53:56;30.00;99.90
20658;DHT22;10488;50.846;4.078;2022-08-02T14:56:22;30.10;99.90
20658;DHT22;10488;50.846;4.078;2022-08-02T14:58:47;30.10;99.90
20658;DHT22;10488;50.846;4.078;2022-08-02T15:01:13;30.20;99.90
20658;DHT22;10488;50.846;4.078;2022-08-02T15:03:38;30.50;99.90
20658;DHT22;10488;50.846;4.078;2022-08-02T15:06:04;30.20;99.90
20658;DHT22;10488;50.846;4.078;2022-08-02T15:08:31;30.10;99.90
20658;DHT22;10488;50.846;4.078;2022-08-02T15:10:56;29.90;99.90
20658;DHT22;10488;50.846;4.078;2022-08-02T15:13:22;29.90;99.90
20658;DHT22;10488;50.846;4.078;2022-08-02T15:15:48;29.80;99.90
20658;DHT22;10488;50.846;4.078;2022-08-02T15:18:13;29.80;99.90
20658;DHT22;10488;50.846;4.078;2022-08-02T15:20:40;29.60;99.90
20658;DHT22;10488;50.846;4.078;2022-08-02T15:23:05;29.70;99.90
20658;DHT22;10488;50.846;4.078;2022-08-02T15:25:31;29.80;99.90
20658;DHT22;10488;50.846;4.078;2022-08-02T15:27:57;29.50;99.90
20658;DHT22;10488;50.846;4.078;2022-08-02T15:30:22;29.30;99.90
20658;DHT22;10488;50.846;4.078;2022-08-02T15:32:48;29.50;99.90
20658;DHT22;10488;50.846;4.078;2022-08-02T15:35:15;29.60;99.90
20658;DHT22;10488;50.846;4.078;2022-08-02T15:37:41;29.60;99.90
20658;DHT22;10488;50.846;4.078;2022-08-02T15:40:07;29.90;99.90
20658;DHT22;10488;50.846;4.078;2022-08-02T15:42:33;29.70;99.90
20658;DHT22;10488;50.846;4.078;2022-08-02T15:44:58;29.60;99.90
20658;DHT22;10488;50.846;4.078;2022-08-02T15:47:24;29.80;99.90
20658;DHT22;10488;50.846;4.078;2022-08-02T15:49:50;29.70;99.90
20658;DHT22;10488;50.846;4.078;2022-08-02T15:52:16;30.00;99.90
20658;DHT22;10488;50.846;4.078;2022-08-02T15:54:42;30.30;99.90
20658;DHT22;10488;50.846;4.078;2022-08-02T15:57:07;30.50;99.90
20658;DHT22;10488;50.846;4.078;2022-08-02T15:59:33;30.30;99.90
20658;DHT22;10488;50.846;4.078;2022-08-02T16:01:59;30.50;99.90
20658;DHT22;10488;50.846;4.078;2022-08-02T16:04:24;30.40;99.90
20658;DHT22;10488;50.846;4.078;2022-08-02T16:06:50;30.50;99.90
20658;DHT22;10488;50.846;4.078;2022-08-02T16:09:16;30.30;99.90
20658;DHT22;10488;50.846;4.078;2022-08-02T16:11:41;30.20;99.90
20658;DHT22;10488;50.846;4.078;2022-08-02T16:14:07;30.30;99.90
20658;DHT22;10488;50.846;4.078;2022-08-02T16:16:35;30.30;99.90